Time;durP1;ratioP1;P1;durP2;ratioP2;P2;SDS_P1;SDS_P2;PMS_P1;PMS_P2;Temp;Humidity;BMP_temperature;BMP_pressure;BME280_temperature;BME280_humidity;BME280_pressure;Samples;Min_cycle;Max_cycle;Signal;HPM_P1;HPM_P2
2023/05/03 00:02:20;;;;;;;1.50;1.40;;;19.10;47.70;;;;;;5007834;28;20445;-79
2023/05/03 00:04:47;;;;;;;1.40;1.30;;;19.10;47.70;;;;;;4991984;28;20677;-79
2023/05/03 00:07:13;;;;;;;1.57;1.47;;;19.10;47.70;;;;;;5010007;28;20222;-79
2023/05/03 00:09:39;;;;;;;1.40;1.30;;;19.10;47.70;;;;;;5000852;28;20481;-79
2023/05/03 00:12:05;;;;;;;2.20;1.30;;;19.10;47.70;;;;;;4997143;28;20435;-79
2023/05/03 00:14:30;;;;;;;2.30;1.53;;;19.10;47.70;;;;;;4996525;28;20226;-79
2023/05/03 00:16:56;;;;;;;1.47;1.37;;;19.10;47.70;;;;;;4994577;28;20938;-79
2023/05/03 00:19:25;;;;;;;1.37;1.27;;;19.10;47.70;;;;;;5010463;28;20662;-79
2023/05/03 00:21:51;;;;;;;1.40;1.30;;;19.10;47.70;;;;;;5014314;28;20227;-79
2023/05/03 00:24:17;;;;;;;1.67;1.57;;;19.10;47.70;;;;;;4994474;28;20464;-79
2023/05/03 00:26:43;;;;;;;1.50;1.40;;;19.10;47.70;;;;;;5013935;28;20234;-79
2023/05/03 00:29:08;;;;;;;1.30;1.20;;;19.10;47.70;;;;;;5004885;28;20985;-79
2023/05/03 00:31:34;;;;;;;1.80;1.70;;;19.10;47.70;;;;;;4994228;28;20247;-79
2023/05/03 00:33:59;;;;;;;1.50;1.40;;;19.10;47.70;;;;;;4998977;28;20282;-79
2023/05/03 00:36:26;;;;;;;1.40;1.30;;;19.10;47.70;;;;;;5013572;28;20215;-79
2023/05/03 00:38:52;;;;;;;1.50;1.40;;;19.10;47.70;;;;;;5001935;28;20550;-79
2023/05/03 00:41:17;;;;;;;1.40;1.30;;;19.10;47.70;;;;;;5006106;28;20498;-79
2023/05/03 00:43:43;;;;;;;1.50;1.40;;;19.10;47.70;;;;;;5005937;28;20223;-79
2023/05/03 00:46:09;;;;;;;1.33;1.23;;;19.10;47.70;;;;;;5003933;28;20333;-79
2023/05/03 00:48:35;;;;;;;1.30;1.20;;;19.10;47.60;;;;;;4983509;28;20725;-79
2023/05/03 00:51:02;;;;;;;1.50;1.40;;;19.10;47.70;;;;;;5000214;28;20571;-80
2023/05/03 00:53:30;;;;;;;1.30;1.20;;;19.10;47.70;;;;;;4989762;28;21124;-79
2023/05/03 00:55:56;;;;;;;1.43;1.33;;;19.10;47.70;;;;;;4989015;28;20524;-79
2023/05/03 00:58:22;;;;;;;1.33;1.23;;;19.10;47.70;;;;;;5000691;28;20415;-79
2023/05/03 01:00:48;;;;;;;1.40;1.30;;;19.10;47.60;;;;;;4989601;28;20461;-79
2023/05/03 01:03:14;;;;;;;1.40;1.27;;;19.10;47.70;;;;;;5007379;28;20218;-79
2023/05/03 01:06:01;;;;;;;1.60;1.50;;;19.10;47.70;;;;;;5005937;28;20265;-80
2023/05/03 01:08:42;;;;;;;1.30;1.20;;;19.10;47.70;;;;;;5005451;28;20728;-79
2023/05/03 01:11:21;;;;;;;1.60;1.50;;;19.10;47.60;;;;;;4983253;28;20439;-80
2023/05/03 01:14:02;;;;;;;1.27;1.17;;;19.10;47.70;;;;;;5005483;28;20496;-80
2023/05/03 01:16:43;;;;;;;1.23;1.13;;;19.10;47.70;;;;;;4992344;28;20435;-79
2023/05/03 01:19:34;;;;;;;1.30;1.20;;;19.10;47.70;;;;;;5006751;28;20492;-79
2023/05/03 01:22:17;;;;;;;1.40;1.30;;;19.10;48.40;;;;;;5003353;28;20870;-79
2023/05/03 01:24:49;;;;;;;1.67;1.27;;;19.10;47.70;;;;;;4989968;28;20456;-80
2023/05/03 01:27:15;;;;;;;1.37;1.27;;;19.10;47.70;;;;;;5000698;28;20447;-79
2023/05/03 01:29:40;;;;;;;1.40;1.30;;;19.10;47.70;;;;;;4980989;28;20509;-79
2023/05/03 01:32:11;;;;;;;1.40;1.30;;;19.10;47.70;;;;;;4991568;28;20322;-79
2023/05/03 01:34:48;;;;;;;1.40;1.30;;;19.10;47.70;;;;;;4994282;28;20304;-80
2023/05/03 01:37:13;;;;;;;1.60;1.50;;;19.10;47.70;;;;;;4989415;28;20453;-81
2023/05/03 01:39:53;;;;;;;1.77;1.63;;;19.10;47.70;;;;;;4998071;28;20469;-79
2023/05/03 01:42:20;;;;;;;1.40;1.30;;;19.10;47.70;;;;;;4999504;28;20243;-80
2023/05/03 01:44:47;;;;;;;1.37;1.27;;;19.10;47.70;;;;;;4985018;28;20933;-80
2023/05/03 01:47:14;;;;;;;1.30;1.20;;;19.10;47.70;;;;;;5010714;28;20790;-79
2023/05/03 01:49:39;;;;;;;1.40;1.30;;;19.10;47.80;;;;;;4993327;28;20496;-79
2023/05/03 01:52:05;;;;;;;1.27;1.17;;;19.10;47.80;;;;;;5008422;28;20911;-79
2023/05/03 01:54:31;;;;;;;1.20;1.10;;;19.10;47.80;;;;;;5011253;28;24200;-79
2023/05/03 01:56:56;;;;;;;1.30;1.20;;;19.10;47.80;;;;;;4998960;28;20227;-79
2023/05/03 01:59:22;;;;;;;1.30;1.20;;;19.10;47.80;;;;;;5009254;28;20231;-79
2023/05/03 02:01:47;;;;;;;1.30;1.20;;;19.10;47.80;;;;;;5011707;28;20247;-79
2023/05/03 02:04:13;;;;;;;1.10;1.10;;;19.10;47.80;;;;;;5010575;28;20220;-79
2023/05/03 02:06:38;;;;;;;1.30;1.20;;;19.10;47.80;;;;;;5014425;28;20222;-79
2023/05/03 02:09:04;;;;;;;1.30;1.20;;;19.10;47.80;;;;;;4995586;28;20233;-79
2023/05/03 02:11:29;;;;;;;1.40;1.30;;;19.10;47.80;;;;;;5010677;28;20238;-79
2023/05/03 02:13:55;;;;;;;1.53;1.43;;;19.10;47.80;;;;;;5008827;28;20230;-79
2023/05/03 02:16:21;;;;;;;1.40;1.30;;;19.10;47.80;;;;;;5010263;28;20231;-78
2023/05/03 02:18:46;;;;;;;1.37;1.27;;;19.10;47.80;;;;;;5010464;28;20258;-78
2023/05/03 02:21:12;;;;;;;1.30;1.20;;;19.10;47.80;;;;;;4993446;28;20230;-79
2023/05/03 02:23:38;;;;;;;1.40;1.30;;;19.10;47.80;;;;;;5005547;28;20377;-79
2023/05/03 02:26:04;;;;;;;1.50;1.40;;;19.10;47.70;;;;;;4997513;28;20219;-78
2023/05/03 02:28:30;;;;;;;1.53;1.43;;;19.10;47.70;;;;;;5010280;28;20219;-79
2023/05/03 02:30:55;;;;;;;1.30;1.20;;;19.10;47.70;;;;;;5011757;28;20450;-79
2023/05/03 02:33:21;;;;;;;1.20;1.10;;;19.10;47.80;;;;;;5009110;28;20225;-78
2023/05/03 02:35:46;;;;;;;1.97;1.87;;;19.10;47.70;;;;;;5014271;28;20243;-79
2023/05/03 02:38:12;;;;;;;1.23;1.13;;;19.10;47.80;;;;;;4997267;28;20215;-78
2023/05/03 02:40:38;;;;;;;1.50;1.30;;;19.10;47.80;;;;;;4995547;28;20223;-79
2023/05/03 02:43:03;;;;;;;1.30;1.20;;;19.10;47.80;;;;;;5008590;28;20780;-78
2023/05/03 02:45:29;;;;;;;1.50;1.40;;;19.10;47.80;;;;;;5008103;28;20223;-79
2023/05/03 02:47:54;;;;;;;1.40;1.30;;;19.00;47.70;;;;;;5009649;28;20222;-79
2023/05/03 02:50:20;;;;;;;1.30;1.20;;;19.10;47.80;;;;;;5014745;28;20257;-79
2023/05/03 02:52:45;;;;;;;1.40;1.30;;;19.10;47.80;;;;;;4993423;28;20261;-79
2023/05/03 02:55:11;;;;;;;1.40;1.27;;;19.10;47.80;;;;;;5006917;28;20363;-79
2023/05/03 02:57:36;;;;;;;1.50;1.40;;;19.10;47.80;;;;;;4989433;28;20779;-79
2023/05/03 03:00:04;;;;;;;1.23;1.13;;;19.10;47.70;;;;;;4999938;28;20720;-78
2023/05/03 03:02:30;;;;;;;1.20;1.10;;;19.10;47.80;;;;;;5004206;28;20322;-79
2023/05/03 03:04:55;;;;;;;1.10;1.00;;;19.10;48.50;;;;;;5006661;28;21072;-79
2023/05/03 03:07:21;;;;;;;1.43;1.33;;;19.00;47.70;;;;;;5010557;28;20223;-79
2023/05/03 03:09:46;;;;;;;1.40;1.30;;;19.10;47.70;;;;;;4995590;28;20303;-79
2023/05/03 03:12:12;;;;;;;1.37;1.27;;;19.00;47.70;;;;;;5005731;28;21343;-79
2023/05/03 03:14:37;;;;;;;1.20;1.10;;;19.10;47.80;;;;;;4996554;28;20661;-79
2023/05/03 03:17:07;;;;;;;1.27;1.17;;;19.10;47.70;;;;;;5008528;28;20226;-79
2023/05/03 03:19:33;;;;;;;1.17;1.07;;;19.10;47.70;;;;;;4996368;28;20729;-79
2023/05/03 03:21:58;;;;;;;1.20;1.10;;;19.00;47.70;;;;;;5006733;28;20439;-79
2023/05/03 03:24:24;;;;;;;1.40;1.30;;;19.10;47.80;;;;;;5011486;28;20689;-79
2023/05/03 03:26:49;;;;;;;1.30;1.20;;;19.00;47.70;;;;;;5004863;28;20219;-79
2023/05/03 03:29:15;;;;;;;1.30;1.20;;;19.10;47.80;;;;;;4997559;28;20281;-79
2023/05/03 03:31:41;;;;;;;1.17;1.17;;;19.10;47.70;;;;;;5000842;28;20254;-79
2023/05/03 03:34:06;;;;;;;1.50;1.40;;;19.10;47.80;;;;;;5001895;28;20328;-79
2023/05/03 03:36:32;;;;;;;1.17;1.10;;;19.00;47.70;;;;;;4993869;28;20222;-79
2023/05/03 03:38:57;;;;;;;1.40;1.30;;;19.00;47.70;;;;;;4996244;28;20255;-78
2023/05/03 03:41:23;;;;;;;1.33;1.23;;;19.10;47.80;;;;;;5002705;28;20246;-79
2023/05/03 03:43:48;;;;;;;1.37;1.27;;;19.10;47.80;;;;;;5003278;28;20594;-79
2023/05/03 03:46:15;;;;;;;1.30;1.20;;;19.00;47.70;;;;;;5011960;28;20686;-79
2023/05/03 03:48:40;;;;;;;1.27;1.17;;;19.00;47.70;;;;;;5003749;28;20304;-78
2023/05/03 03:51:06;;;;;;;1.20;1.13;;;19.00;47.70;;;;;;5010897;28;20976;-79
2023/05/03 03:53:31;;;;;;;1.30;1.20;;;19.10;47.70;;;;;;5000469;28;20588;-78
2023/05/03 03:55:57;;;;;;;1.30;1.20;;;19.00;47.70;;;;;;4993033;28;20575;-78
2023/05/03 03:58:22;;;;;;;1.17;1.07;;;19.00;47.70;;;;;;5013632;28;21232;-79
2023/05/03 04:00:48;;;;;;;1.17;1.10;;;19.00;47.70;;;;;;5018252;28;20234;-79
2023/05/03 04:03:14;;;;;;;1.37;1.27;;;19.10;47.70;;;;;;5014006;28;20223;-81
2023/05/03 04:05:40;;;;;;;1.40;1.30;;;19.00;47.70;;;;;;4999098;28;20231;-81
2023/05/03 04:08:05;;;;;;;1.20;1.10;;;19.00;47.70;;;;;;4993872;28;20455;-81
2023/05/03 04:10:31;;;;;;;1.37;1.27;;;19.00;47.60;;;;;;5001518;28;20241;-81
2023/05/03 04:12:56;;;;;;;1.30;1.20;;;19.10;47.70;;;;;;4996421;28;20696;-80
2023/05/03 04:15:22;;;;;;;1.03;1.03;;;19.10;47.70;;;;;;5016441;28;20231;-80
2023/05/03 04:17:48;;;;;;;1.30;1.20;;;19.10;47.70;;;;;;5019102;28;20258;-80
2023/05/03 04:20:13;;;;;;;1.37;1.27;;;19.10;47.60;;;;;;5013208;28;20223;-80
2023/05/03 04:22:39;;;;;;;1.20;1.10;;;19.10;47.60;;;;;;4994174;28;20919;-79
2023/05/03 04:25:07;;;;;;;1.40;1.30;;;19.10;47.60;;;;;;5012282;28;20226;-79
2023/05/03 04:27:34;;;;;;;1.30;1.20;;;19.20;47.60;;;;;;5013158;28;20931;-80
2023/05/03 04:29:59;;;;;;;1.67;1.57;;;19.20;47.70;;;;;;5010251;28;20458;-79
2023/05/03 04:32:25;;;;;;;1.20;1.10;;;19.20;47.70;;;;;;5010976;28;20426;-79
2023/05/03 04:34:51;;;;;;;1.50;1.40;;;19.20;47.70;;;;;;5006642;28;20353;-79
2023/05/03 04:37:20;;;;;;;1.40;1.30;;;19.20;47.60;;;;;;5006838;28;20347;-82
2023/05/03 04:39:45;;;;;;;1.40;1.30;;;19.20;47.60;;;;;;4988007;28;20552;-80
2023/05/03 04:42:14;;;;;;;1.30;1.20;;;19.20;47.60;;;;;;5009437;28;20526;-79
2023/05/03 04:44:43;;;;;;;1.30;1.20;;;19.20;47.60;;;;;;5013954;28;20780;-81
2023/05/03 04:47:10;;;;;;;1.20;1.10;;;19.20;47.60;;;;;;5007718;28;20781;-77
2023/05/03 04:49:36;;;;;;;1.30;1.20;;;19.20;48.30;;;;;;5007977;28;20442;-78
2023/05/03 04:52:01;;;;;;;1.30;1.20;;;19.20;47.60;;;;;;5014095;28;20450;-79
2023/05/03 04:54:27;;;;;;;1.40;1.30;;;19.20;47.60;;;;;;5009201;28;20219;-77
2023/05/03 04:56:54;;;;;;;1.30;1.20;;;19.20;47.60;;;;;;5012547;28;20289;-77
2023/05/03 04:59:20;;;;;;;1.33;1.23;;;19.20;47.60;;;;;;5010095;28;20313;-77
2023/05/03 05:01:45;;;;;;;1.20;1.10;;;19.20;47.60;;;;;;5010653;28;20454;-77
2023/05/03 05:04:11;;;;;;;1.30;1.20;;;19.20;47.60;;;;;;4999196;28;20269;-77
2023/05/03 05:06:37;;;;;;;1.30;1.10;;;19.20;47.50;;;;;;4999919;28;20227;-76
2023/05/03 05:09:03;;;;;;;1.20;1.10;;;19.20;47.60;;;;;;4995293;28;20826;-76
2023/05/03 05:11:30;;;;;;;1.83;1.20;;;19.20;47.50;;;;;;4999820;28;20230;-76
2023/05/03 05:13:55;;;;;;;1.40;1.30;;;19.20;47.50;;;;;;4994692;28;20444;-76
2023/05/03 05:16:21;;;;;;;1.17;1.07;;;19.20;47.50;;;;;;4998961;28;20423;-77
2023/05/03 05:18:46;;;;;;;1.40;1.30;;;19.20;47.50;;;;;;4998353;28;20571;-77
2023/05/03 05:21:13;;;;;;;2.43;1.20;;;19.20;47.50;;;;;;4998225;28;20224;-77
2023/05/03 05:23:38;;;;;;;1.43;1.33;;;19.20;47.50;;;;;;4982321;28;20709;-75
2023/05/03 05:26:04;;;;;;;1.40;1.30;;;19.20;47.50;;;;;;4973950;28;20568;-76
2023/05/03 05:28:30;;;;;;;1.10;1.00;;;19.20;47.50;;;;;;5004464;28;20301;-75
2023/05/03 05:30:55;;;;;;;1.10;1.10;;;19.20;47.50;;;;;;5008268;28;20242;-74
2023/05/03 05:33:21;;;;;;;1.73;1.20;;;19.20;47.50;;;;;;5001710;28;20246;-73
2023/05/03 05:35:47;;;;;;;1.40;1.30;;;19.20;47.50;;;;;;5008253;28;20257;-76
2023/05/03 05:38:17;;;;;;;1.30;1.20;;;19.20;47.50;;;;;;4984367;28;20544;-74
2023/05/03 05:40:43;;;;;;;1.40;1.30;;;19.20;47.50;;;;;;4993682;28;20980;-74
2023/05/03 05:43:08;;;;;;;1.40;1.30;;;19.20;47.50;;;;;;5008656;28;20451;-74
2023/05/03 05:45:34;;;;;;;1.30;1.20;;;19.20;47.50;;;;;;4998005;28;20893;-74
2023/05/03 05:48:00;;;;;;;1.87;1.40;;;19.20;47.50;;;;;;4983945;28;20798;-74
2023/05/03 05:50:25;;;;;;;1.27;1.17;;;19.20;47.50;;;;;;5000176;28;20526;-74
2023/05/03 05:52:51;;;;;;;1.27;1.17;;;19.20;47.50;;;;;;5002942;28;20218;-73
2023/05/03 05:55:17;;;;;;;1.97;1.20;;;19.20;47.50;;;;;;5004355;28;20308;-73
2023/05/03 05:57:43;;;;;;;1.30;1.20;;;19.20;47.50;;;;;;4997696;28;20833;-74
2023/05/03 06:00:13;;;;;;;1.10;1.00;;;19.20;47.50;;;;;;4997686;28;20277;-73
2023/05/03 06:02:39;;;;;;;1.57;1.47;;;19.20;47.40;;;;;;5007174;28;20231;-73
2023/05/03 06:05:05;;;;;;;1.53;1.43;;;19.20;47.50;;;;;;5000708;28;20994;-73
2023/05/03 06:07:30;;;;;;;1.30;1.20;;;19.20;47.30;;;;;;5006224;28;20471;-73
2023/05/03 06:09:56;;;;;;;1.43;1.33;;;19.20;47.40;;;;;;5002345;28;20701;-73
2023/05/03 06:12:21;;;;;;;1.20;1.10;;;19.20;47.40;;;;;;4995824;28;20363;-73
2023/05/03 06:14:47;;;;;;;1.43;1.33;;;19.20;47.40;;;;;;5011235;28;21907;-73
2023/05/03 06:17:13;;;;;;;1.50;1.40;;;19.20;47.40;;;;;;5012704;28;20226;-73
2023/05/03 06:19:39;;;;;;;1.23;1.13;;;19.20;47.50;;;;;;5008288;28;20632;-73
2023/05/03 06:22:04;;;;;;;1.33;1.23;;;19.20;47.40;;;;;;4999148;28;20224;-73
2023/05/03 06:24:31;;;;;;;1.40;1.30;;;19.20;47.30;;;;;;5011257;28;20223;-73
2023/05/03 06:26:57;;;;;;;1.23;1.17;;;19.20;47.30;;;;;;5008244;28;20218;-73
2023/05/03 06:29:23;;;;;;;1.30;1.20;;;19.20;47.30;;;;;;5006249;28;20852;-73
2023/05/03 06:31:49;;;;;;;1.37;1.27;;;19.20;47.30;;;;;;5008090;28;20439;-73
2023/05/03 06:34:19;;;;;;;1.93;1.43;;;19.20;47.30;;;;;;4988433;28;20460;-73
2023/05/03 06:36:44;;;;;;;1.93;1.30;;;19.20;47.30;;;;;;5002868;28;20693;-73
2023/05/03 06:39:10;;;;;;;1.33;1.23;;;19.20;47.30;;;;;;5012446;28;20471;-72
2023/05/03 06:41:36;;;;;;;1.30;1.20;;;19.20;47.30;;;;;;5008155;28;20931;-75
2023/05/03 06:44:03;;;;;;;2.27;1.80;;;19.20;47.30;;;;;;5009290;28;20219;-75
2023/05/03 06:46:31;;;;;;;1.20;1.10;;;19.20;47.30;;;;;;5012801;28;20314;-74
2023/05/03 06:48:57;;;;;;;1.50;1.40;;;19.20;47.30;;;;;;5009036;28;20530;-74
2023/05/03 06:51:26;;;;;;;1.40;1.30;;;19.20;47.30;;;;;;5008939;28;21013;-73
2023/05/03 06:53:54;;;;;;;2.60;1.30;;;19.20;47.30;;;;;;4996961;28;20239;-74
2023/05/03 06:56:21;;;;;;;1.40;1.30;;;19.20;47.50;;;;;;5009805;28;20456;-74
2023/05/03 06:58:46;;;;;;;1.63;1.53;;;19.20;47.30;;;;;;4993178;28;20439;-73
2023/05/03 07:01:12;;;;;;;1.50;1.40;;;19.20;47.30;;;;;;4995538;28;20936;-73
2023/05/03 07:03:38;;;;;;;1.43;1.33;;;19.20;47.20;;;;;;4995492;28;20310;-73
2023/05/03 07:06:04;;;;;;;1.43;1.33;;;19.20;47.30;;;;;;4997053;28;20261;-73
2023/05/03 07:08:30;;;;;;;1.20;1.10;;;19.20;47.30;;;;;;4999203;28;20212;-73
2023/05/03 07:10:55;;;;;;;1.37;1.27;;;19.20;47.20;;;;;;5001820;28;20531;-73
2023/05/03 07:13:21;;;;;;;1.43;1.33;;;19.20;47.30;;;;;;5003801;28;20452;-73
2023/05/03 07:15:46;;;;;;;1.50;1.40;;;19.20;47.30;;;;;;5012978;28;20243;-73
2023/05/03 07:18:12;;;;;;;1.40;1.30;;;19.20;47.30;;;;;;4997678;28;20660;-73
2023/05/03 07:20:38;;;;;;;1.43;1.20;;;19.20;47.20;;;;;;5010514;28;20728;-73
2023/05/03 07:23:05;;;;;;;1.23;1.13;;;19.20;47.20;;;;;;4998609;28;20233;-73
2023/05/03 07:25:31;;;;;;;1.50;1.40;;;19.20;47.20;;;;;;4984300;28;20305;-73
2023/05/03 07:27:57;;;;;;;1.23;1.13;;;19.20;47.20;;;;;;5005536;28;20435;-73
2023/05/03 07:30:23;;;;;;;1.30;1.20;;;19.20;47.20;;;;;;5002616;28;21591;-74
2023/05/03 07:32:49;;;;;;;1.30;1.20;;;19.20;47.20;;;;;;5003029;28;20937;-73
2023/05/03 07:35:15;;;;;;;1.30;1.20;;;19.20;47.20;;;;;;5002672;28;21685;-72
2023/05/03 07:37:41;;;;;;;1.30;1.20;;;19.20;47.20;;;;;;5002395;28;21205;-73
2023/05/03 07:40:08;;;;;;;2.40;1.27;;;19.20;47.20;;;;;;5001513;28;20475;-73
2023/05/03 07:42:34;;;;;;;1.50;1.40;;;19.20;47.20;;;;;;5005054;28;20488;-73
2023/05/03 07:45:00;;;;;;;2.13;1.30;;;19.20;47.20;;;;;;4984174;28;20446;-73
2023/05/03 07:47:26;;;;;;;1.20;1.10;;;19.20;47.20;;;;;;5002616;28;20441;-73
2023/05/03 07:49:52;;;;;;;1.40;1.17;;;19.20;47.20;;;;;;4992325;28;20228;-73
2023/05/03 07:52:18;;;;;;;1.30;1.20;;;19.30;47.20;;;;;;4994939;28;20925;-72
2023/05/03 07:54:44;;;;;;;1.50;1.40;;;19.20;47.10;;;;;;4992937;28;20739;-72
2023/05/03 07:57:12;;;;;;;1.30;1.20;;;19.20;47.10;;;;;;4983365;28;20223;-72
2023/05/03 07:59:38;;;;;;;1.00;1.00;;;19.20;47.10;;;;;;4990776;28;21001;-73
2023/05/03 08:02:03;;;;;;;1.50;1.40;;;19.20;47.10;;;;;;4992425;28;20661;-73
2023/05/03 08:04:29;;;;;;;1.20;1.10;;;19.30;47.30;;;;;;4989862;28;21255;-73
2023/05/03 08:06:54;;;;;;;2.03;1.83;;;19.20;47.10;;;;;;4986231;28;20260;-73
2023/05/03 08:09:20;;;;;;;2.37;1.80;;;19.20;47.10;;;;;;4998648;28;20223;-72
2023/05/03 08:11:46;;;;;;;1.30;1.20;;;19.20;47.10;;;;;;4996064;28;20218;-74
2023/05/03 08:14:11;;;;;;;1.30;1.20;;;19.20;47.10;;;;;;4997890;28;20214;-74
2023/05/03 08:16:37;;;;;;;1.10;1.00;;;19.30;47.30;;;;;;4999112;28;20219;-74
2023/05/03 08:19:03;;;;;;;1.30;1.20;;;19.30;47.20;;;;;;5002724;28;20245;-74
2023/05/03 08:21:29;;;;;;;1.40;1.30;;;19.20;47.10;;;;;;4991565;28;20228;-74
2023/05/03 08:23:55;;;;;;;1.20;1.10;;;19.20;47.00;;;;;;4994423;28;20438;-74
2023/05/03 08:26:23;;;;;;;1.33;1.23;;;19.30;47.20;;;;;;4994687;28;20782;-74
2023/05/03 08:28:48;;;;;;;1.80;1.20;;;19.20;47.10;;;;;;4993055;28;20302;-74
2023/05/03 08:31:14;;;;;;;1.53;1.30;;;19.30;47.20;;;;;;4998822;28;20470;-74
2023/05/03 08:33:39;;;;;;;1.37;1.27;;;19.30;47.20;;;;;;4988944;28;20282;-74
2023/05/03 08:36:05;;;;;;;1.47;1.37;;;19.30;47.10;;;;;;5000062;28;20219;-74
2023/05/03 08:38:33;;;;;;;1.30;1.20;;;19.30;47.20;;;;;;4981762;28;20258;-74
2023/05/03 08:41:10;;;;;;;1.20;1.10;;;19.20;47.00;;;;;;4975892;28;20431;-74
2023/05/03 08:43:41;;;;;;;1.20;1.10;;;19.30;47.20;;;;;;4990934;28;20464;-74
2023/05/03 08:46:11;;;;;;;1.30;1.20;;;19.30;47.10;;;;;;4971130;28;20439;-74
2023/05/03 08:48:36;;;;;;;1.40;1.30;;;19.30;47.20;;;;;;4991535;28;20446;-74
2023/05/03 08:51:04;;;;;;;1.30;1.20;;;19.30;47.20;;;;;;4997422;28;20439;-74
2023/05/03 08:53:29;;;;;;;1.20;1.10;;;19.30;47.10;;;;;;4995534;28;20257;-74
2023/05/03 08:55:55;;;;;;;2.00;1.20;;;19.30;47.10;;;;;;4990280;28;20535;-74
2023/05/03 08:58:21;;;;;;;1.00;1.00;;;19.30;47.10;;;;;;4991805;28;20222;-73
2023/05/03 09:00:46;;;;;;;1.43;1.33;;;19.30;47.10;;;;;;4990912;28;20226;-73
2023/05/03 09:03:12;;;;;;;1.30;1.20;;;19.30;47.20;;;;;;4987971;28;20389;-73
2023/05/03 09:05:39;;;;;;;1.00;1.00;;;19.30;47.10;;;;;;4988830;28;20235;-74
2023/05/03 09:08:07;;;;;;;2.07;1.37;;;19.30;47.10;;;;;;4997395;28;20665;-74
2023/05/03 09:10:36;;;;;;;2.03;1.27;;;19.30;47.10;;;;;;4985029;28;20445;-74
2023/05/03 09:13:02;;;;;;;1.27;1.10;;;19.30;47.10;;;;;;4986419;28;21795;-73
2023/05/03 09:15:31;;;;;;;1.20;1.10;;;19.30;47.10;;;;;;4986291;28;20463;-73
2023/05/03 09:18:16;;;;;;;1.27;1.17;;;19.30;47.10;;;;;;5005445;28;20237;-73
2023/05/03 09:20:50;;;;;;;1.17;1.07;;;19.30;47.10;;;;;;5000738;28;20449;-73
2023/05/03 09:23:36;;;;;;;1.30;1.20;;;19.30;47.10;;;;;;4999193;28;20487;-73
2023/05/03 09:26:01;;;;;;;1.20;1.10;;;19.30;47.10;;;;;;4984609;28;20503;-74
2023/05/03 09:28:27;;;;;;;1.30;1.20;;;19.30;47.10;;;;;;4998159;28;22204;-75
2023/05/03 09:31:06;;;;;;;1.43;1.20;;;19.30;47.10;;;;;;4998357;28;20225;-74
2023/05/03 09:33:32;;;;;;;1.73;1.20;;;19.30;47.00;;;;;;4982076;28;20712;-74
2023/05/03 09:35:58;;;;;;;1.77;1.67;;;19.30;47.00;;;;;;4997364;28;20450;-74
2023/05/03 09:38:29;;;;;;;1.20;1.10;;;19.30;47.00;;;;;;4988486;28;20669;-75
2023/05/03 09:40:55;;;;;;;1.20;1.10;;;19.30;47.00;;;;;;4983504;28;21277;-73
2023/05/03 09:43:21;;;;;;;1.40;1.20;;;19.30;47.00;;;;;;4982844;28;20478;-74
2023/05/03 09:45:46;;;;;;;1.43;1.20;;;19.30;47.00;;;;;;4992872;28;20483;-74
2023/05/03 09:48:12;;;;;;;1.27;1.17;;;19.30;47.00;;;;;;4988804;28;20348;-74
2023/05/03 09:50:38;;;;;;;1.13;1.03;;;19.30;47.00;;;;;;4989520;28;20596;-73
2023/05/03 09:53:05;;;;;;;1.57;1.10;;;19.30;47.00;;;;;;4987716;28;20582;-74
2023/05/03 09:55:40;;;;;;;1.20;1.10;;;19.30;47.00;;;;;;4993503;28;20519;-74
2023/05/03 09:58:07;;;;;;;1.50;1.20;;;19.30;47.00;;;;;;4985687;28;20447;-74
2023/05/03 10:00:34;;;;;;;1.20;1.10;;;19.40;47.00;;;;;;4987688;28;21093;-74
2023/05/03 10:03:03;;;;;;;1.27;1.17;;;19.40;47.00;;;;;;4992104;28;20480;-74
2023/05/03 10:05:31;;;;;;;1.33;1.23;;;19.30;47.00;;;;;;4996490;28;20454;-72
2023/05/03 10:08:00;;;;;;;1.47;1.10;;;19.40;47.10;;;;;;5000601;28;20469;-73
2023/05/03 10:10:29;;;;;;;1.20;1.00;;;19.30;47.00;;;;;;5001674;28;20471;-72
2023/05/03 10:12:55;;;;;;;1.33;1.23;;;19.40;47.80;;;;;;4999254;28;20435;-73
2023/05/03 10:15:22;;;;;;;1.40;1.30;;;19.30;46.90;;;;;;4988682;28;20464;-72
2023/05/03 10:17:51;;;;;;;1.30;1.20;;;19.40;47.00;;;;;;4986380;28;20439;-73
2023/05/03 10:20:24;;;;;;;1.23;1.13;;;19.40;47.00;;;;;;4989762;28;20531;-73
2023/05/03 10:23:04;;;;;;;1.40;1.30;;;19.40;47.00;;;;;;4988135;28;20449;-73
2023/05/03 10:25:31;;;;;;;1.37;1.20;;;19.40;47.00;;;;;;4998897;28;20513;-72
2023/05/03 10:28:07;;;;;;;1.30;1.20;;;19.40;47.00;;;;;;5004314;28;20439;-74
2023/05/03 10:30:38;;;;;;;1.10;1.00;;;19.40;47.00;;;;;;4997344;28;21577;-73
2023/05/03 10:33:12;;;;;;;1.30;1.10;;;19.40;47.00;;;;;;5001015;28;20815;-73
2023/05/03 10:35:40;;;;;;;1.40;1.30;;;19.40;47.00;;;;;;4999241;28;21023;-73
2023/05/03 10:38:15;;;;;;;1.20;1.10;;;19.40;47.00;;;;;;4980781;28;20462;-73
2023/05/03 10:40:42;;;;;;;1.30;1.20;;;19.40;47.00;;;;;;5002409;28;20445;-73
2023/05/03 10:43:27;;;;;;;1.27;1.10;;;19.40;47.00;;;;;;4998085;28;20492;-73
2023/05/03 10:46:02;;;;;;;1.40;1.30;;;19.40;47.00;;;;;;4988843;28;20542;-73
2023/05/03 10:48:28;;;;;;;1.20;1.10;;;19.40;47.00;;;;;;4984018;28;22745;-72
2023/05/03 10:50:55;;;;;;;1.87;1.10;;;19.40;47.00;;;;;;4994924;28;20485;-72
2023/05/03 10:53:32;;;;;;;1.20;1.10;;;19.40;46.90;;;;;;4990092;28;20606;-72
2023/05/03 10:56:09;;;;;;;1.23;1.13;;;19.40;47.00;;;;;;5003100;28;21525;-72
2023/05/03 10:58:46;;;;;;;1.23;1.13;;;19.40;47.00;;;;;;4983459;28;20552;-72
2023/05/03 11:01:14;;;;;;;1.20;1.10;;;19.40;47.00;;;;;;4998339;28;20442;-72
2023/05/03 11:04:08;;;;;;;1.20;1.10;;;19.40;47.00;;;;;;4998954;28;20478;-73
2023/05/03 11:06:39;;;;;;;1.10;1.00;;;19.40;47.00;;;;;;4992976;28;20467;-73
2023/05/03 11:09:07;;;;;;;1.97;1.10;;;19.40;47.10;;;;;;4993140;28;20452;-73
2023/05/03 11:11:35;;;;;;;1.30;1.20;;;19.40;47.00;;;;;;4997970;28;20525;-73
2023/05/03 11:14:02;;;;;;;1.20;1.10;;;19.40;47.10;;;;;;5001721;28;20449;-74
2023/05/03 11:16:28;;;;;;;1.17;1.07;;;19.40;47.00;;;;;;4998279;28;20470;-74
2023/05/03 11:18:54;;;;;;;1.20;1.10;;;19.40;47.00;;;;;;4995507;28;21946;-73
2023/05/03 11:21:20;;;;;;;1.47;1.30;;;19.40;47.00;;;;;;4994430;28;20473;-73
2023/05/03 11:23:45;;;;;;;1.20;1.00;;;19.40;47.00;;;;;;4989319;28;20826;-73
2023/05/03 11:26:12;;;;;;;1.30;1.20;;;19.40;47.00;;;;;;5001851;28;20223;-73
2023/05/03 11:28:38;;;;;;;1.17;1.07;;;19.40;47.00;;;;;;4996015;28;20329;-73
2023/05/03 11:31:07;;;;;;;1.10;1.07;;;19.40;47.00;;;;;;4997403;28;20491;-72
2023/05/03 11:33:34;;;;;;;1.27;1.10;;;19.40;47.10;;;;;;4982513;28;20587;-73
2023/05/03 11:36:02;;;;;;;1.50;1.40;;;19.40;47.00;;;;;;4990046;28;20521;-72
2023/05/03 11:38:31;;;;;;;1.23;1.13;;;19.50;47.00;;;;;;4967101;28;20473;-72
2023/05/03 11:40:56;;;;;;;1.13;1.03;;;19.50;47.00;;;;;;4969501;28;20874;-72
2023/05/03 11:43:22;;;;;;;1.30;1.20;;;19.40;47.00;;;;;;4974055;28;20447;-72
2023/05/03 11:45:51;;;;;;;1.10;1.10;;;19.40;47.70;;;;;;4994546;28;20248;-73
2023/05/03 11:48:16;;;;;;;1.23;1.10;;;19.50;46.90;;;;;;4988423;28;20210;-72
2023/05/03 11:50:52;;;;;;;1.23;1.13;;;19.50;46.90;;;;;;4986773;28;20454;-72
2023/05/03 11:53:18;;;;;;;1.10;1.00;;;19.50;47.00;;;;;;4982734;28;20254;-72
2023/05/03 11:55:46;;;;;;;1.10;1.00;;;19.50;46.90;;;;;;4976364;28;20505;-72
2023/05/03 11:58:14;;;;;;;1.00;0.90;;;19.50;46.90;;;;;;4991117;28;20957;-72
2023/05/03 12:00:44;;;;;;;1.30;1.20;;;19.50;46.90;;;;;;4989103;28;20472;-72
2023/05/03 12:03:09;;;;;;;1.20;1.10;;;19.50;46.90;;;;;;4996267;28;20476;-72
2023/05/03 12:05:35;;;;;;;1.10;1.00;;;19.50;46.90;;;;;;4990973;28;20481;-72
2023/05/03 12:08:00;;;;;;;1.10;1.00;;;19.50;46.90;;;;;;4991325;28;20223;-72
2023/05/03 12:10:31;;;;;;;1.20;1.10;;;19.50;46.80;;;;;;4980137;28;20296;-72
2023/05/03 12:13:01;;;;;;;1.30;1.20;;;19.50;46.90;;;;;;4999704;28;20364;-72
2023/05/03 12:15:36;;;;;;;1.47;1.03;;;19.50;46.90;;;;;;5000618;28;21331;-72
2023/05/03 12:18:06;;;;;;;1.07;1.00;;;19.50;46.90;;;;;;4999308;28;20516;-72
2023/05/03 12:20:32;;;;;;;1.20;1.10;;;19.50;46.90;;;;;;5002402;28;20484;-72
2023/05/03 12:23:04;;;;;;;2.03;1.30;;;19.50;46.80;;;;;;5000947;28;21082;-73
2023/05/03 12:25:30;;;;;;;1.33;1.23;;;19.50;46.80;;;;;;5002651;28;20230;-73
2023/05/03 12:27:57;;;;;;;1.13;1.03;;;19.50;46.80;;;;;;5003066;28;20799;-72
2023/05/03 12:30:23;;;;;;;1.57;1.47;;;19.50;46.80;;;;;;4989849;28;20450;-72
2023/05/03 12:32:49;;;;;;;1.20;1.10;;;19.50;46.80;;;;;;4982179;28;21003;-72
2023/05/03 12:35:15;;;;;;;1.30;1.20;;;19.50;46.80;;;;;;4985631;28;20476;-72
2023/05/03 12:37:40;;;;;;;1.30;1.20;;;19.50;46.80;;;;;;4994343;28;20796;-72
2023/05/03 12:40:07;;;;;;;1.30;1.20;;;19.50;46.80;;;;;;4993051;28;20867;-72
2023/05/03 12:42:33;;;;;;;1.33;1.23;;;19.50;46.70;;;;;;4999142;28;20861;-73
2023/05/03 12:44:59;;;;;;;1.07;0.97;;;19.50;46.70;;;;;;4968899;28;20474;-73
2023/05/03 12:47:25;;;;;;;1.20;1.10;;;19.50;46.90;;;;;;4979381;28;20591;-72
2023/05/03 12:49:51;;;;;;;1.40;1.30;;;19.50;46.70;;;;;;4986353;28;20227;-72